sensor_id;sensor_type;location;lat;lon;timestamp;pressure;altitude;pressure_sealevel;temperature;humidity
52719;BME280;38616;42.140;24.760;2024-02-23T00:02:08;99540.09;;;8.60;57.70
52719;BME280;38616;42.140;24.760;2024-02-23T00:04:34;99538.19;;;8.50;57.89
52719;BME280;38616;42.140;24.760;2024-02-23T00:06:59;99534.38;;;8.51;58.65
52719;BME280;38616;42.140;24.760;2024-02-23T00:09:27;99536.34;;;8.82;57.68
52719;BME280;38616;42.140;24.760;2024-02-23T00:11:52;99537.69;;;8.90;56.68
52719;BME280;38616;42.140;24.760;2024-02-23T00:14:18;99541.75;;;9.02;56.41
52719;BME280;38616;42.140;24.760;2024-02-23T00:16:43;99545.28;;;9.08;56.71
52719;BME280;38616;42.140;24.760;2024-02-23T00:19:10;99539.03;;;8.97;56.56
52719;BME280;38616;42.140;24.760;2024-02-23T00:21:36;99533.88;;;8.70;57.65
52719;BME280;38616;42.140;24.760;2024-02-23T00:24:02;99526.03;;;8.58;57.93
52719;BME280;38616;42.140;24.760;2024-02-23T00:26:28;99531.97;;;8.55;58.21
52719;BME280;38616;42.140;24.760;2024-02-23T00:28:57;99524.31;;;8.36;58.33
52719;BME280;38616;42.140;24.760;2024-02-23T00:31:22;99524.06;;;8.43;58.62
52719;BME280;38616;42.140;24.760;2024-02-23T00:33:48;99515.38;;;8.41;58.30
52719;BME280;38616;42.140;24.760;2024-02-23T00:36:13;99515.44;;;8.51;58.63
52719;BME280;38616;42.140;24.760;2024-02-23T00:38:39;99515.72;;;8.50;58.73
52719;BME280;38616;42.140;24.760;2024-02-23T00:41:05;99512.47;;;8.53;58.01
52719;BME280;38616;42.140;24.760;2024-02-23T00:43:38;99510.06;;;8.77;58.04
52719;BME280;38616;42.140;24.760;2024-02-23T00:46:03;99505.97;;;8.49;57.65
52719;BME280;38616;42.140;24.760;2024-02-23T01:13:20;99494.25;;;8.17;59.21
52719;BME280;38616;42.140;24.760;2024-02-23T01:15:46;99495.81;;;8.03;59.62
52719;BME280;38616;42.140;24.760;2024-02-23T01:18:11;99499.41;;;8.34;58.90
52719;BME280;38616;42.140;24.760;2024-02-23T01:20:37;99488.31;;;8.41;58.24
52719;BME280;38616;42.140;24.760;2024-02-23T01:23:02;99488.84;;;8.22;59.00
52719;BME280;38616;42.140;24.760;2024-02-23T01:25:28;99482.06;;;8.25;58.59
52719;BME280;38616;42.140;24.760;2024-02-23T01:27:53;99481.00;;;8.36;58.96
52719;BME280;38616;42.140;24.760;2024-02-23T01:30:19;99481.53;;;8.23;59.21
52719;BME280;38616;42.140;24.760;2024-02-23T01:32:47;99482.63;;;8.27;58.61
52719;BME280;38616;42.140;24.760;2024-02-23T01:35:13;99495.31;;;8.16;59.23
52719;BME280;38616;42.140;24.760;2024-02-23T01:37:39;99480.47;;;8.34;59.13
52719;BME280;38616;42.140;24.760;2024-02-23T01:40:05;99478.56;;;8.19;59.01
52719;BME280;38616;42.140;24.760;2024-02-23T01:42:31;99480.97;;;8.21;59.07
52719;BME280;38616;42.140;24.760;2024-02-23T01:44:57;99479.63;;;8.18;58.95
52719;BME280;38616;42.140;24.760;2024-02-23T01:47:23;99480.94;;;8.10;58.92
52719;BME280;38616;42.140;24.760;2024-02-23T01:49:50;99472.31;;;8.13;58.70
52719;BME280;38616;42.140;24.760;2024-02-23T01:52:17;99477.72;;;8.13;59.23
52719;BME280;38616;42.140;24.760;2024-02-23T01:54:43;99469.38;;;8.46;58.55
52719;BME280;38616;42.140;24.760;2024-02-23T01:57:09;99469.03;;;8.11;58.52
52719;BME280;38616;42.140;24.760;2024-02-23T02:00:06;99462.53;;;8.07;59.12
52719;BME280;38616;42.140;24.760;2024-02-23T02:19:15;99460.91;;;8.01;59.50
52719;BME280;38616;42.140;24.760;2024-02-23T02:21:41;99466.31;;;8.06;59.69
52719;BME280;38616;42.140;24.760;2024-02-23T02:24:06;99465.75;;;7.99;60.01
52719;BME280;38616;42.140;24.760;2024-02-23T02:26:32;99455.50;;;8.06;59.88
52719;BME280;38616;42.140;24.760;2024-02-23T02:28:58;99458.22;;;8.11;58.94
52719;BME280;38616;42.140;24.760;2024-02-23T02:31:23;99469.88;;;8.12;59.51
52719;BME280;38616;42.140;24.760;2024-02-23T02:33:49;99460.34;;;7.99;59.23
52719;BME280;38616;42.140;24.760;2024-02-23T02:36:14;99461.97;;;8.00;59.72
52719;BME280;38616;42.140;24.760;2024-02-23T02:58:50;99465.75;;;7.99;58.82
52719;BME280;38616;42.140;24.760;2024-02-23T03:01:16;99465.22;;;7.87;59.40
52719;BME280;38616;42.140;24.760;2024-02-23T03:03:41;99467.91;;;7.81;59.75
52719;BME280;38616;42.140;24.760;2024-02-23T03:06:06;99473.31;;;7.81;59.87
52719;BME280;38616;42.140;24.760;2024-02-23T03:08:36;99472.22;;;7.82;59.38
52719;BME280;38616;42.140;24.760;2024-02-23T03:11:01;99474.50;;;7.53;59.92
52719;BME280;38616;42.140;24.760;2024-02-23T03:13:27;99477.25;;;7.58;59.87
52719;BME280;38616;42.140;24.760;2024-02-23T03:15:53;99481.06;;;7.67;58.85
52719;BME280;38616;42.140;24.760;2024-02-23T03:18:18;99480.34;;;7.29;58.96
52719;BME280;38616;42.140;24.760;2024-02-23T03:20:44;99481.38;;;7.18;59.12
52719;BME280;38616;42.140;24.760;2024-02-23T03:23:10;99481.19;;;7.35;59.15
52719;BME280;38616;42.140;24.760;2024-02-23T03:25:36;99485.53;;;7.41;58.70
52719;BME280;38616;42.140;24.760;2024-02-23T03:28:01;99480.63;;;7.33;58.41
52719;BME280;38616;42.140;24.760;2024-02-23T03:30:27;99490.47;;;7.49;58.38
52719;BME280;38616;42.140;24.760;2024-02-23T03:32:55;99486.31;;;7.31;58.10
52719;BME280;38616;42.140;24.760;2024-02-23T03:35:20;99486.34;;;7.36;57.97
52719;BME280;38616;42.140;24.760;2024-02-23T03:37:46;99482.38;;;7.54;57.65
52719;BME280;38616;42.140;24.760;2024-02-23T03:40:11;99481.25;;;7.45;57.87
52719;BME280;38616;42.140;24.760;2024-02-23T03:42:37;99480.63;;;7.33;58.48
52719;BME280;38616;42.140;24.760;2024-02-23T03:45:04;99480.34;;;7.29;58.41
52719;BME280;38616;42.140;24.760;2024-02-23T03:47:30;99481.47;;;7.33;58.73
52719;BME280;38616;42.140;24.760;2024-02-23T03:49:55;99483.97;;;7.50;57.83
52719;BME280;38616;42.140;24.760;2024-02-23T03:52:21;99482.88;;;7.46;58.04
52719;BME280;38616;42.140;24.760;2024-02-23T03:54:46;99487.59;;;7.23;58.20
52719;BME280;38616;42.140;24.760;2024-02-23T03:57:12;99484.88;;;7.18;58.68
52719;BME280;38616;42.140;24.760;2024-02-23T03:59:37;99482.78;;;7.31;58.24
52719;BME280;38616;42.140;24.760;2024-02-23T04:02:03;99485.44;;;7.25;58.22
52719;BME280;38616;42.140;24.760;2024-02-23T04:04:29;99485.25;;;7.32;58.33
52719;BME280;38616;42.140;24.760;2024-02-23T04:06:55;99480.06;;;7.25;58.53
52719;BME280;38616;42.140;24.760;2024-02-23T04:09:20;99495.59;;;7.46;57.28
52719;BME280;38616;42.140;24.760;2024-02-23T04:11:47;99486.28;;;7.26;57.41
52719;BME280;38616;42.140;24.760;2024-02-23T04:14:13;99488.44;;;7.24;57.58
52719;BME280;38616;42.140;24.760;2024-02-23T04:16:39;99482.44;;;7.17;58.16
52719;BME280;38616;42.140;24.760;2024-02-23T04:19:04;99491.25;;;7.02;58.39
52719;BME280;38616;42.140;24.760;2024-02-23T04:21:30;99488.44;;;6.86;58.38
52719;BME280;38616;42.140;24.760;2024-02-23T04:23:56;99491.66;;;6.83;58.39
52719;BME280;38616;42.140;24.760;2024-02-23T04:26:21;99493.00;;;6.86;58.33
52719;BME280;38616;42.140;24.760;2024-02-23T04:28:47;99494.72;;;6.97;58.31
52719;BME280;38616;42.140;24.760;2024-02-23T04:31:13;99490.31;;;6.86;58.33
52719;BME280;38616;42.140;24.760;2024-02-23T04:33:38;99490.78;;;6.77;58.05
52719;BME280;38616;42.140;24.760;2024-02-23T04:36:04;99500.31;;;6.85;58.44
52719;BME280;38616;42.140;24.760;2024-02-23T04:38:30;99492.72;;;6.82;58.29
52719;BME280;38616;42.140;24.760;2024-02-23T04:40:56;99492.28;;;6.63;58.15
52719;BME280;38616;42.140;24.760;2024-02-23T04:43:23;99497.66;;;6.58;58.78
52719;BME280;38616;42.140;24.760;2024-02-23T04:45:50;99498.78;;;6.62;58.99
52719;BME280;38616;42.140;24.760;2024-02-23T04:48:16;99496.16;;;6.72;58.94
52719;BME280;38616;42.140;24.760;2024-02-23T04:50:41;99492.66;;;6.72;59.08
52719;BME280;38616;42.140;24.760;2024-02-23T04:53:07;99495.47;;;6.55;59.01
52719;BME280;38616;42.140;24.760;2024-02-23T04:55:33;99496.41;;;6.38;60.12
52719;BME280;38616;42.140;24.760;2024-02-23T04:57:58;99487.88;;;6.52;59.77
52719;BME280;38616;42.140;24.760;2024-02-23T05:00:24;99486.63;;;6.64;59.45
52719;BME280;38616;42.140;24.760;2024-02-23T05:02:53;99496.84;;;6.30;60.35
52719;BME280;38616;42.140;24.760;2024-02-23T05:05:19;99489.66;;;6.13;60.65
52719;BME280;38616;42.140;24.760;2024-02-23T05:07:47;99492.81;;;6.32;60.74
52719;BME280;38616;42.140;24.760;2024-02-23T05:10:12;99500.34;;;6.58;59.95
52719;BME280;38616;42.140;24.760;2024-02-23T05:12:38;99501.81;;;6.71;58.94
52719;BME280;38616;42.140;24.760;2024-02-23T05:15:03;99501.31;;;6.74;59.19
52719;BME280;38616;42.140;24.760;2024-02-23T05:17:29;99497.75;;;6.41;59.77
52719;BME280;38616;42.140;24.760;2024-02-23T05:19:54;99504.88;;;6.25;60.49
52719;BME280;38616;42.140;24.760;2024-02-23T05:22:20;99511.19;;;6.08;61.63
52719;BME280;38616;42.140;24.760;2024-02-23T05:24:45;99508.25;;;6.37;61.10
52719;BME280;38616;42.140;24.760;2024-02-23T05:27:11;99512.06;;;6.41;59.77
52719;BME280;38616;42.140;24.760;2024-02-23T05:29:36;99514.44;;;6.10;60.93
52719;BME280;38616;42.140;24.760;2024-02-23T05:32:02;99521.38;;;5.84;62.28
52719;BME280;38616;42.140;24.760;2024-02-23T05:34:28;99517.59;;;6.29;61.34
52719;BME280;38616;42.140;24.760;2024-02-23T05:36:53;99520.97;;;6.42;60.08
52719;BME280;38616;42.140;24.760;2024-02-23T05:39:19;99523.25;;;6.55;60.15
52719;BME280;38616;42.140;24.760;2024-02-23T05:41:44;99514.47;;;6.70;59.48
52719;BME280;38616;42.140;24.760;2024-02-23T05:44:10;99522.09;;;6.46;59.83
52719;BME280;38616;42.140;24.760;2024-02-23T05:46:36;99523.09;;;6.40;60.97
52719;BME280;38616;42.140;24.760;2024-02-23T05:49:02;99523.38;;;6.65;60.05
52719;BME280;38616;42.140;24.760;2024-02-23T05:51:30;99526.97;;;6.76;59.62
52719;BME280;38616;42.140;24.760;2024-02-23T05:53:56;99527.59;;;6.56;59.72
52719;BME280;38616;42.140;24.760;2024-02-23T05:56:21;99531.16;;;6.34;61.05
52719;BME280;38616;42.140;24.760;2024-02-23T05:58:49;99536.03;;;6.38;61.02
52719;BME280;38616;42.140;24.760;2024-02-23T06:01:14;99531.34;;;6.28;61.24
52719;BME280;38616;42.140;24.760;2024-02-23T06:03:40;99535.03;;;6.44;60.86
52719;BME280;38616;42.140;24.760;2024-02-23T06:06:08;99540.81;;;6.85;59.86
52719;BME280;38616;42.140;24.760;2024-02-23T06:08:35;99541.47;;;6.98;59.55
52719;BME280;38616;42.140;24.760;2024-02-23T06:11:01;99555.06;;;7.13;58.96
52719;BME280;38616;42.140;24.760;2024-02-23T06:13:28;99547.13;;;6.96;59.20
52719;BME280;38616;42.140;24.760;2024-02-23T06:15:54;99556.09;;;6.74;60.56
52719;BME280;38616;42.140;24.760;2024-02-23T06:18:19;99561.09;;;6.60;60.48
52719;BME280;38616;42.140;24.760;2024-02-23T06:20:45;99572.63;;;6.50;61.12
52719;BME280;38616;42.140;24.760;2024-02-23T06:23:11;99573.03;;;6.64;61.04
52719;BME280;38616;42.140;24.760;2024-02-23T06:25:37;99577.44;;;7.03;59.88
52719;BME280;38616;42.140;24.760;2024-02-23T06:28:02;99569.69;;;6.85;59.82
52719;BME280;38616;42.140;24.760;2024-02-23T06:30:28;99585.81;;;7.02;59.60
52719;BME280;38616;42.140;24.760;2024-02-23T06:32:53;99577.44;;;7.03;59.11
52719;BME280;38616;42.140;24.760;2024-02-23T06:35:21;99576.44;;;7.15;58.90
52719;BME280;38616;42.140;24.760;2024-02-23T06:37:47;99570.72;;;7.11;58.52
52719;BME280;38616;42.140;24.760;2024-02-23T06:40:13;99577.00;;;7.17;58.25
52719;BME280;38616;42.140;24.760;2024-02-23T06:42:38;99574.38;;;6.94;58.62
52719;BME280;38616;42.140;24.760;2024-02-23T06:45:04;99571.41;;;7.29;58.21
52719;BME280;38616;42.140;24.760;2024-02-23T06:47:30;99565.31;;;7.11;58.21
52719;BME280;38616;42.140;24.760;2024-02-23T06:49:55;99573.31;;;7.28;57.72
52719;BME280;38616;42.140;24.760;2024-02-23T06:52:21;99572.63;;;7.48;57.05
52719;BME280;38616;42.140;24.760;2024-02-23T06:54:46;99573.47;;;7.54;57.32
52719;BME280;38616;42.140;24.760;2024-02-23T06:57:12;99566.53;;;7.68;57.33
52719;BME280;38616;42.140;24.760;2024-02-23T06:59:37;99566.59;;;7.84;56.01
52719;BME280;38616;42.140;24.760;2024-02-23T07:02:03;99563.69;;;7.96;55.89
52719;BME280;38616;42.140;24.760;2024-02-23T07:04:31;99567.25;;;8.07;55.65
52719;BME280;38616;42.140;24.760;2024-02-23T07:06:59;99567.81;;;8.09;55.43
52719;BME280;38616;42.140;24.760;2024-02-23T07:09:24;99568.09;;;8.12;55.43
52719;BME280;38616;42.140;24.760;2024-02-23T07:11:50;99556.66;;;8.00;55.28
52719;BME280;38616;42.140;24.760;2024-02-23T07:14:15;99568.09;;;8.18;55.42
52719;BME280;38616;42.140;24.760;2024-02-23T07:16:42;99573.03;;;8.36;54.61
52719;BME280;38616;42.140;24.760;2024-02-23T07:19:08;99574.97;;;8.46;54.40
52719;BME280;38616;42.140;24.760;2024-02-23T07:21:34;99570.16;;;8.64;54.26
52719;BME280;38616;42.140;24.760;2024-02-23T07:24:00;99572.06;;;8.63;54.05
52719;BME280;38616;42.140;24.760;2024-02-23T07:26:26;99568.31;;;8.75;54.19
52719;BME280;38616;42.140;24.760;2024-02-23T07:28:53;99561.50;;;8.77;53.71
52719;BME280;38616;42.140;24.760;2024-02-23T07:31:19;99555.84;;;8.79;53.90
52719;BME280;38616;42.140;24.760;2024-02-23T07:33:44;99556.94;;;8.83;54.05
52719;BME280;38616;42.140;24.760;2024-02-23T07:36:14;99552.88;;;9.01;53.26
52719;BME280;38616;42.140;24.760;2024-02-23T07:38:39;99555.28;;;9.08;53.27
52719;BME280;38616;42.140;24.760;2024-02-23T07:41:05;99546.63;;;9.16;52.65
52719;BME280;38616;42.140;24.760;2024-02-23T07:43:30;99539.03;;;9.18;52.87
52719;BME280;38616;42.140;24.760;2024-02-23T07:45:56;99545.53;;;9.12;53.26
52719;BME280;38616;42.140;24.760;2024-02-23T07:48:21;99547.69;;;9.25;52.91
52719;BME280;38616;42.140;24.760;2024-02-23T07:50:47;99553.06;;;9.61;52.34
52719;BME280;38616;42.140;24.760;2024-02-23T07:53:13;99550.09;;;9.53;52.33
52719;BME280;38616;42.140;24.760;2024-02-23T07:55:38;99544.13;;;9.61;52.18
52719;BME280;38616;42.140;24.760;2024-02-23T07:58:04;99537.88;;;9.66;52.24
52719;BME280;38616;42.140;24.760;2024-02-23T08:00:29;99530.50;;;9.82;52.35
52719;BME280;38616;42.140;24.760;2024-02-23T08:02:55;99536.16;;;9.90;52.73
52719;BME280;38616;42.140;24.760;2024-02-23T08:05:22;99544.81;;;9.93;52.65
52719;BME280;38616;42.140;24.760;2024-02-23T08:07:49;99539.16;;;9.84;53.08
52719;BME280;38616;42.140;24.760;2024-02-23T08:10:14;99535.56;;;10.04;53.04
52719;BME280;38616;42.140;24.760;2024-02-23T08:12:40;99539.91;;;10.00;53.63
52719;BME280;38616;42.140;24.760;2024-02-23T08:15:06;99543.19;;;9.97;54.64
52719;BME280;38616;42.140;24.760;2024-02-23T08:17:32;99533.34;;;10.11;54.64
52719;BME280;38616;42.140;24.760;2024-02-23T08:19:57;99542.28;;;10.17;54.72
52719;BME280;38616;42.140;24.760;2024-02-23T08:22:23;99532.72;;;10.30;54.31
52719;BME280;38616;42.140;24.760;2024-02-23T08:24:49;99529.50;;;10.23;54.54
52719;BME280;38616;42.140;24.760;2024-02-23T08:27:15;99537.06;;;10.31;55.04
52719;BME280;38616;42.140;24.760;2024-02-23T08:29:40;99530.22;;;10.44;54.88
52719;BME280;38616;42.140;24.760;2024-02-23T08:32:07;99521.13;;;10.64;54.56
52719;BME280;38616;42.140;24.760;2024-02-23T08:34:32;99525.94;;;10.72;54.23
52719;BME280;38616;42.140;24.760;2024-02-23T08:37:00;99517.75;;;10.77;53.36
52719;BME280;38616;42.140;24.760;2024-02-23T08:39:25;99519.94;;;10.75;53.90
52719;BME280;38616;42.140;24.760;2024-02-23T08:41:52;99524.84;;;10.73;53.50
52719;BME280;38616;42.140;24.760;2024-02-23T08:44:18;99534.00;;;10.88;53.70
52719;BME280;38616;42.140;24.760;2024-02-23T08:46:47;99523.03;;;10.98;53.60
52719;BME280;38616;42.140;24.760;2024-02-23T08:49:14;99520.78;;;11.11;52.99
52719;BME280;38616;42.140;24.760;2024-02-23T08:51:39;99511.50;;;11.12;52.91
52719;BME280;38616;42.140;24.760;2024-02-23T08:54:05;99512.09;;;11.08;53.28
52719;BME280;38616;42.140;24.760;2024-02-23T08:56:38;99518.53;;;11.18;53.32
52719;BME280;38616;42.140;24.760;2024-02-23T08:59:11;99531.56;;;11.21;52.89
52719;BME280;38616;42.140;24.760;2024-02-23T09:01:36;99528.88;;;11.16;53.28
52719;BME280;38616;42.140;24.760;2024-02-23T09:04:02;99519.59;;;11.46;52.69
52719;BME280;38616;42.140;24.760;2024-02-23T09:06:28;99520.66;;;11.50;52.29
52719;BME280;38616;42.140;24.760;2024-02-23T09:08:53;99518.50;;;11.47;52.17
52719;BME280;38616;42.140;24.760;2024-02-23T09:11:18;99508.44;;;11.48;51.87
52719;BME280;38616;42.140;24.760;2024-02-23T09:13:44;99504.44;;;11.64;51.94
52719;BME280;38616;42.140;24.760;2024-02-23T09:16:12;99496.16;;;11.75;52.01
52719;BME280;38616;42.140;24.760;2024-02-23T09:18:37;99498.88;;;11.75;51.52
52719;BME280;38616;42.140;24.760;2024-02-23T09:21:03;99501.66;;;11.70;51.54
52719;BME280;38616;42.140;24.760;2024-02-23T09:23:29;99494.31;;;11.70;51.98
52719;BME280;38616;42.140;24.760;2024-02-23T09:25:54;99501.22;;;11.87;51.29
52719;BME280;38616;42.140;24.760;2024-02-23T09:28:22;99493.16;;;11.76;51.42
52719;BME280;38616;42.140;24.760;2024-02-23T09:30:48;99482.94;;;11.87;51.41
52719;BME280;38616;42.140;24.760;2024-02-23T09:33:13;99479.84;;;12.18;51.00
52719;BME280;38616;42.140;24.760;2024-02-23T09:35:39;99488.47;;;12.25;50.82
52719;BME280;38616;42.140;24.760;2024-02-23T09:38:07;99476.53;;;12.21;50.45
52719;BME280;38616;42.140;24.760;2024-02-23T09:40:32;99473.59;;;12.18;51.33
52719;BME280;38616;42.140;24.760;2024-02-23T09:42:58;99464.69;;;12.12;51.55
52719;BME280;38616;42.140;24.760;2024-02-23T09:45:25;99466.25;;;12.18;51.44
52719;BME280;38616;42.140;24.760;2024-02-23T09:47:53;99469.03;;;12.32;51.17
52719;BME280;38616;42.140;24.760;2024-02-23T09:50:20;99471.81;;;12.46;50.34
52719;BME280;38616;42.140;24.760;2024-02-23T09:52:47;99463.88;;;12.31;50.72
52719;BME280;38616;42.140;24.760;2024-02-23T09:55:18;99451.13;;;12.45;50.44
52719;BME280;38616;42.140;24.760;2024-02-23T09:57:44;99450.44;;;12.53;49.81
52719;BME280;38616;42.140;24.760;2024-02-23T10:00:11;99449.09;;;12.70;49.90
52719;BME280;38616;42.140;24.760;2024-02-23T10:02:39;99440.72;;;12.66;49.56
52719;BME280;38616;42.140;24.760;2024-02-23T10:05:06;99433.94;;;12.64;49.70
52719;BME280;38616;42.140;24.760;2024-02-23T10:07:32;99433.75;;;12.74;49.31
52719;BME280;38616;42.140;24.760;2024-02-23T10:09:58;99435.78;;;12.68;49.52
52719;BME280;38616;42.140;24.760;2024-02-23T10:12:24;99446.38;;;12.70;49.48
52719;BME280;38616;42.140;24.760;2024-02-23T10:14:49;99433.72;;;12.60;49.20
52719;BME280;38616;42.140;24.760;2024-02-23T10:17:15;99432.38;;;12.77;49.38
52719;BME280;38616;42.140;24.760;2024-02-23T10:19:40;99425.09;;;12.86;48.93
52719;BME280;38616;42.140;24.760;2024-02-23T10:22:06;99422.38;;;12.86;48.48
52719;BME280;38616;42.140;24.760;2024-02-23T10:24:31;99418.25;;;13.03;48.21
52719;BME280;38616;42.140;24.760;2024-02-23T10:26:57;99423.16;;;13.20;47.42
52719;BME280;38616;42.140;24.760;2024-02-23T10:29:23;99414.84;;;12.97;48.51
52719;BME280;38616;42.140;24.760;2024-02-23T10:31:51;99406.94;;;12.95;48.52
52719;BME280;38616;42.140;24.760;2024-02-23T10:34:19;99411.22;;;13.15;48.15
52719;BME280;38616;42.140;24.760;2024-02-23T10:36:45;99399.81;;;13.41;48.10
52719;BME280;38616;42.140;24.760;2024-02-23T10:39:17;99391.94;;;13.54;47.38
52719;BME280;38616;42.140;24.760;2024-02-23T10:41:56;99374.34;;;13.60;47.35
52719;BME280;38616;42.140;24.760;2024-02-23T10:44:24;99377.41;;;13.81;47.03
52719;BME280;38616;42.140;24.760;2024-02-23T10:46:50;99391.59;;;13.69;46.71
52719;BME280;38616;42.140;24.760;2024-02-23T10:49:17;99389.44;;;13.94;45.51
52719;BME280;38616;42.140;24.760;2024-02-23T10:51:46;99376.19;;;13.87;45.41
52719;BME280;38616;42.140;24.760;2024-02-23T10:54:14;99377.00;;;13.88;45.48
52719;BME280;38616;42.140;24.760;2024-02-23T10:56:42;99374.78;;;13.76;45.88
52719;BME280;38616;42.140;24.760;2024-02-23T10:59:08;99358.16;;;14.00;45.91
52719;BME280;38616;42.140;24.760;2024-02-23T11:01:35;99368.09;;;14.19;45.83
52719;BME280;38616;42.140;24.760;2024-02-23T11:04:02;99358.66;;;14.25;45.35
52719;BME280;38616;42.140;24.760;2024-02-23T11:06:28;99354.31;;;14.01;45.26
52719;BME280;38616;42.140;24.760;2024-02-23T11:09:04;99353.63;;;13.96;45.47
52719;BME280;38616;42.140;24.760;2024-02-23T11:11:31;99350.56;;;14.20;44.85
52719;BME280;38616;42.140;24.760;2024-02-23T11:13:57;99348.41;;;14.31;44.78
52719;BME280;38616;42.140;24.760;2024-02-23T11:16:23;99340.25;;;14.17;44.93
52719;BME280;38616;42.140;24.760;2024-02-23T11:18:48;99341.22;;;14.35;44.50
52719;BME280;38616;42.140;24.760;2024-02-23T11:21:14;99333.41;;;14.51;44.40
52719;BME280;38616;42.140;24.760;2024-02-23T11:23:49;99327.84;;;14.65;43.72
52719;BME280;38616;42.140;24.760;2024-02-23T11:26:17;99329.03;;;14.41;44.05
52719;BME280;38616;42.140;24.760;2024-02-23T11:28:50;99332.63;;;14.51;43.88
52719;BME280;38616;42.140;24.760;2024-02-23T11:31:23;99331.22;;;14.62;43.75
52719;BME280;38616;42.140;24.760;2024-02-23T11:33:54;99331.53;;;14.60;43.74
52719;BME280;38616;42.140;24.760;2024-02-23T11:36:23;99313.53;;;14.59;43.06
52719;BME280;38616;42.140;24.760;2024-02-23T11:38:52;99319.88;;;14.46;42.36
52719;BME280;38616;42.140;24.760;2024-02-23T11:41:20;99317.84;;;14.52;42.62
52719;BME280;38616;42.140;24.760;2024-02-23T11:43:47;99322.03;;;14.58;42.91
52719;BME280;38616;42.140;24.760;2024-02-23T11:46:14;99318.75;;;14.70;42.71
52719;BME280;38616;42.140;24.760;2024-02-23T11:48:39;99315.59;;;14.85;42.35
52719;BME280;38616;42.140;24.760;2024-02-23T11:51:05;99305.31;;;14.91;41.99
52719;BME280;38616;42.140;24.760;2024-02-23T11:53:32;99308.34;;;14.81;42.15
52719;BME280;38616;42.140;24.760;2024-02-23T11:55:57;99312.28;;;14.66;42.33
52719;BME280;38616;42.140;24.760;2024-02-23T11:58:23;99300.31;;;14.53;42.91
52719;BME280;38616;42.140;24.760;2024-02-23T12:00:50;99298.91;;;14.64;42.43
52719;BME280;38616;42.140;24.760;2024-02-23T12:03:16;99300.00;;;14.86;42.09
52719;BME280;38616;42.140;24.760;2024-02-23T12:05:43;99302.63;;;15.00;41.90
52719;BME280;38616;42.140;24.760;2024-02-23T12:08:08;99295.75;;;15.20;41.59
52719;BME280;38616;42.140;24.760;2024-02-23T12:10:34;99293.97;;;15.15;41.69
52719;BME280;38616;42.140;24.760;2024-02-23T12:13:00;99301.09;;;15.34;41.03
52719;BME280;38616;42.140;24.760;2024-02-23T12:15:25;99287.88;;;15.36;40.83
52719;BME280;38616;42.140;24.760;2024-02-23T12:17:51;99272.59;;;15.35;40.77
52719;BME280;38616;42.140;24.760;2024-02-23T12:20:16;99277.72;;;15.28;40.92
52719;BME280;38616;42.140;24.760;2024-02-23T12:22:42;99280.66;;;15.40;40.75
52719;BME280;38616;42.140;24.760;2024-02-23T12:25:08;99276.94;;;15.62;40.46
52719;BME280;38616;42.140;24.760;2024-02-23T12:27:34;99275.34;;;15.52;40.17
52719;BME280;38616;42.140;24.760;2024-02-23T12:29:59;99276.47;;;15.60;40.00
52719;BME280;38616;42.140;24.760;2024-02-23T12:32:25;99266.81;;;15.54;40.48
52719;BME280;38616;42.140;24.760;2024-02-23T12:34:52;99262.63;;;15.57;40.54
52719;BME280;38616;42.140;24.760;2024-02-23T12:37:18;99267.47;;;15.77;40.01
52719;BME280;38616;42.140;24.760;2024-02-23T12:39:46;99259.22;;;15.69;40.13
52719;BME280;38616;42.140;24.760;2024-02-23T12:42:11;99249.91;;;15.78;39.87
52719;BME280;38616;42.140;24.760;2024-02-23T12:44:37;99257.31;;;15.60;39.90
52719;BME280;38616;42.140;24.760;2024-02-23T12:47:03;99255.03;;;15.80;39.80
52719;BME280;38616;42.140;24.760;2024-02-23T12:49:28;99242.50;;;15.88;39.88
52719;BME280;38616;42.140;24.760;2024-02-23T12:51:54;99226.38;;;15.77;39.77
52719;BME280;38616;42.140;24.760;2024-02-23T12:54:20;99243.78;;;15.90;39.48
52719;BME280;38616;42.140;24.760;2024-02-23T12:56:46;99234.56;;;15.86;39.75
52719;BME280;38616;42.140;24.760;2024-02-23T12:59:13;99225.88;;;15.84;39.66
52719;BME280;38616;42.140;24.760;2024-02-23T13:01:38;99228.13;;;15.91;39.53
52719;BME280;38616;42.140;24.760;2024-02-23T13:04:04;99227.00;;;15.92;39.49
52719;BME280;38616;42.140;24.760;2024-02-23T13:06:40;99229.88;;;16.04;39.27
52719;BME280;38616;42.140;24.760;2024-02-23T13:09:06;99231.19;;;16.07;39.21
52719;BME280;38616;42.140;24.760;2024-02-23T13:11:38;99228.56;;;16.19;38.88
52719;BME280;38616;42.140;24.760;2024-02-23T13:14:05;99226.81;;;16.15;38.84
52719;BME280;38616;42.140;24.760;2024-02-23T13:16:30;99227.50;;;15.85;39.38
52719;BME280;38616;42.140;24.760;2024-02-23T13:18:56;99231.50;;;16.14;39.17
52719;BME280;38616;42.140;24.760;2024-02-23T13:21:22;99222.44;;;16.22;38.88
52719;BME280;38616;42.140;24.760;2024-02-23T13:23:49;99220.19;;;16.16;38.83
52719;BME280;38616;42.140;24.760;2024-02-23T13:26:14;99215.19;;;16.18;39.28
52719;BME280;38616;42.140;24.760;2024-02-23T13:28:42;99218.59;;;16.15;39.02
52719;BME280;38616;42.140;24.760;2024-02-23T13:31:08;99215.97;;;16.27;39.04
52719;BME280;38616;42.140;24.760;2024-02-23T13:33:33;99213.69;;;16.29;38.65
52719;BME280;38616;42.140;24.760;2024-02-23T13:35:59;99207.56;;;16.32;38.78
52719;BME280;38616;42.140;24.760;2024-02-23T13:38:25;99210.91;;;16.38;38.64
52719;BME280;38616;42.140;24.760;2024-02-23T13:40:50;99206.19;;;16.47;38.48
52719;BME280;38616;42.140;24.760;2024-02-23T13:43:17;99200.44;;;16.40;38.53
52719;BME280;38616;42.140;24.760;2024-02-23T13:45:52;99204.34;;;16.30;38.65
52719;BME280;38616;42.140;24.760;2024-02-23T13:48:18;99195.47;;;16.33;38.59
52719;BME280;38616;42.140;24.760;2024-02-23T13:50:47;99202.84;;;16.42;38.72
52719;BME280;38616;42.140;24.760;2024-02-23T13:53:13;99202.69;;;16.38;38.64